Time;durP1;ratioP1;P1;durP2;ratioP2;P2;SDS_P1;SDS_P2;PMS_P1;PMS_P2;Temp;Humidity;BMP_temperature;BMP_pressure;BME280_temperature;BME280_humidity;BME280_pressure;Samples;Min_cycle;Max_cycle;Signal;HPM_P1;HPM_P2
2022/04/16 00:00:56;;;;;;;;;;;9.10;99.90;;;;;;5071248;28;20065;-84
2022/04/16 00:03:22;;;;;;;;;;;9.10;99.90;;;;;;5071360;28;19921;-84
2022/04/16 00:05:53;;;;;;;;;;;9.10;99.90;;;;;;5054905;28;20430;-84
2022/04/16 00:08:19;;;;;;;;;;;9.20;99.90;;;;;;5071812;28;19920;-84
2022/04/16 00:10:45;;;;;;;;;;;9.20;99.90;;;;;;5054654;28;19926;-84
2022/04/16 00:13:11;;;;;;;;;;;9.20;99.90;;;;;;5054584;28;19921;-84
2022/04/16 00:15:38;;;;;;;;;;;9.20;99.90;;;;;;5073632;28;19931;-84
2022/04/16 00:18:04;;;;;;;;;;;9.10;99.90;;;;;;5074402;28;19971;-84
2022/04/16 00:20:31;;;;;;;;;;;9.10;99.90;;;;;;5074746;28;19924;-84
2022/04/16 00:22:57;;;;;;;;;;;9.10;99.90;;;;;;5058192;28;20400;-83
2022/04/16 00:25:23;;;;;;;;;;;9.20;99.90;;;;;;5058163;28;19971;-84
2022/04/16 00:27:49;;;;;;;;;;;9.20;99.90;;;;;;5059017;28;19927;-84
2022/04/16 00:30:17;;;;;;;;;;;9.20;99.90;;;;;;5075017;28;20343;-84
2022/04/16 00:32:44;;;;;;;;;;;9.20;99.90;;;;;;5074701;28;19924;-84
2022/04/16 00:35:09;;;;;;;;;;;9.10;99.90;;;;;;5041028;28;19921;-84
2022/04/16 00:37:35;;;;;;;;;;;9.00;99.90;;;;;;5058415;28;19974;-84
2022/04/16 00:40:01;;;;;;;;;;;9.00;99.90;;;;;;5073851;28;19943;-84
2022/04/16 00:42:39;;;;;;;;;;;8.90;99.90;;;;;;5078782;28;19927;-84
2022/04/16 00:45:05;;;;;;;;;;;8.90;99.90;;;;;;5075233;28;19927;-84
2022/04/16 00:47:31;;;;;;;;;;;8.90;99.90;;;;;;5074423;28;19920;-84
2022/04/16 00:49:57;;;;;;;;;;;8.90;99.90;;;;;;5057437;28;19929;-83
2022/04/16 00:52:22;;;;;;;;;;;8.90;99.90;;;;;;5074733;28;19970;-84
2022/04/16 00:54:49;;;;;;;;;;;8.90;99.90;;;;;;5073668;28;19927;-84
2022/04/16 00:57:15;;;;;;;;;;;8.90;99.90;;;;;;5057661;28;20015;-84
2022/04/16 00:59:41;;;;;;;;;;;8.90;99.90;;;;;;5074365;28;20023;-85
2022/04/16 01:02:09;;;;;;;;;;;8.90;99.90;;;;;;5073328;28;20014;-84
2022/04/16 01:04:35;;;;;;;;;;;9.00;99.90;;;;;;5057641;28;20288;-84
2022/04/16 01:07:00;;;;;;;;;;;8.90;99.90;;;;;;5073886;28;20012;-84
2022/04/16 01:09:26;;;;;;;;;;;9.00;99.90;;;;;;5057234;28;19921;-84
2022/04/16 01:11:52;;;;;;;;;;;8.90;99.90;;;;;;5057553;28;19928;-84
2022/04/16 01:14:19;;;;;;;;;;;9.00;99.90;;;;;;5040347;28;20714;-83
2022/04/16 01:16:45;;;;;;;;;;;9.00;99.90;;;;;;5057107;28;19920;-83
2022/04/16 01:19:11;;;;;;;;;;;9.00;99.90;;;;;;5073577;28;19921;-84
2022/04/16 01:21:36;;;;;;;;;;;9.00;99.90;;;;;;5056571;28;19920;-84
2022/04/16 01:24:03;;;;;;;;;;;9.00;99.90;;;;;;5073908;28;19921;-84
2022/04/16 01:26:29;;;;;;;;;;;9.00;99.90;;;;;;5072185;28;19928;-84
2022/04/16 01:28:55;;;;;;;;;;;9.00;99.90;;;;;;5057336;28;20314;-84
2022/04/16 01:31:20;;;;;;;;;;;9.00;99.90;;;;;;5056158;28;19924;-85
2022/04/16 01:33:46;;;;;;;;;;;9.00;99.90;;;;;;5056825;28;19924;-84
2022/04/16 01:36:12;;;;;;;;;;;9.00;99.90;;;;;;5056394;28;19943;-84
2022/04/16 01:38:37;;;;;;;;;;;9.00;99.90;;;;;;5057435;28;19964;-84
2022/04/16 01:41:04;;;;;;;;;;;9.00;99.90;;;;;;5056102;28;19920;-84
2022/04/16 01:43:30;;;;;;;;;;;9.00;99.90;;;;;;5073748;28;19935;-84
2022/04/16 01:45:56;;;;;;;;;;;9.00;99.90;;;;;;5056862;28;20296;-84
2022/04/16 01:48:22;;;;;;;;;;;9.10;99.90;;;;;;5072873;28;19947;-84
2022/04/16 01:50:51;;;;;;;;;;;9.10;99.90;;;;;;5056549;28;19974;-84
2022/04/16 01:53:16;;;;;;;;;;;9.10;99.90;;;;;;5056554;28;20014;-84
2022/04/16 01:55:42;;;;;;;;;;;9.00;99.90;;;;;;5072562;28;20020;-84
2022/04/16 01:58:07;;;;;;;;;;;9.00;99.90;;;;;;5055796;28;19920;-84
2022/04/16 02:00:33;;;;;;;;;;;9.10;99.90;;;;;;5073438;28;20353;-84
2022/04/16 02:02:59;;;;;;;;;;;9.10;99.90;;;;;;5072565;28;20369;-84
2022/04/16 02:05:25;;;;;;;;;;;9.10;99.90;;;;;;5056096;28;19963;-84
2022/04/16 02:07:51;;;;;;;;;;;9.00;99.90;;;;;;5073072;28;19921;-84
2022/04/16 02:10:16;;;;;;;;;;;9.10;99.90;;;;;;5072466;28;19920;-84
2022/04/16 02:12:42;;;;;;;;;;;9.10;99.90;;;;;;5073040;28;20408;-84
2022/04/16 02:15:09;;;;;;;;;;;9.00;99.90;;;;;;5072518;28;19978;-84
2022/04/16 02:17:35;;;;;;;;;;;9.00;99.90;;;;;;5072433;28;19927;-84
2022/04/16 02:20:01;;;;;;;;;;;9.00;99.90;;;;;;5072568;28;20074;-85
2022/04/16 02:22:26;;;;;;;;;;;9.00;99.90;;;;;;5055799;28;20030;-84
2022/04/16 02:24:52;;;;;;;;;;;9.00;99.90;;;;;;5055839;28;19926;-84
2022/04/16 02:27:17;;;;;;;;;;;9.00;99.90;;;;;;5055724;28;19920;-84
2022/04/16 02:29:43;;;;;;;;;;;9.00;99.90;;;;;;5072892;28;20007;-84
2022/04/16 02:32:09;;;;;;;;;;;8.90;99.90;;;;;;5055299;28;19974;-83
2022/04/16 02:34:35;;;;;;;;;;;8.90;99.90;;;;;;5072473;28;20003;-84
2022/04/16 02:37:00;;;;;;;;;;;8.90;99.90;;;;;;5056022;28;19927;-84
2022/04/16 02:39:26;;;;;;;;;;;8.90;99.90;;;;;;5054850;28;19968;-84
2022/04/16 02:41:51;;;;;;;;;;;8.90;99.90;;;;;;5056310;28;19920;-84
2022/04/16 02:47:08;;;;;;;;;;;8.90;99.90;;;;;;5072110;28;19978;-84
2022/04/16 02:49:36;;;;;;;;;;;8.90;99.90;;;;;;5072450;28;19920;-84
2022/04/16 02:52:03;;;;;;;;;;;8.90;99.90;;;;;;5072046;28;19920;-84
2022/04/16 02:54:28;;;;;;;;;;;8.80;99.90;;;;;;5071146;28;19951;-84
2022/04/16 02:56:55;;;;;;;;;;;8.80;99.90;;;;;;5072627;28;20276;-84
2022/04/16 02:59:21;;;;;;;;;;;8.80;99.90;;;;;;5072332;28;20014;-84
2022/04/16 03:01:47;;;;;;;;;;;8.70;99.90;;;;;;5072012;28;19966;-84
2022/04/16 03:04:12;;;;;;;;;;;8.70;99.90;;;;;;5071950;28;19970;-83
2022/04/16 03:06:38;;;;;;;;;;;8.60;99.90;;;;;;5071900;28;20357;-84
2022/04/16 03:09:03;;;;;;;;;;;8.60;99.90;;;;;;5055279;28;19920;-84
2022/04/16 03:11:29;;;;;;;;;;;8.50;99.90;;;;;;5072210;28;20011;-84
2022/04/16 03:13:54;;;;;;;;;;;8.40;99.90;;;;;;5055594;28;19927;-84
2022/04/16 03:19:05;;;;;;;;;;;8.30;99.90;;;;;;5058425;28;19920;-84
2022/04/16 03:21:30;;;;;;;;;;;8.30;99.90;;;;;;5038275;28;20023;-84
2022/04/16 03:23:56;;;;;;;;;;;8.30;99.90;;;;;;5071874;28;20018;-84
2022/04/16 03:26:22;;;;;;;;;;;8.30;99.90;;;;;;5071200;28;20361;-84
2022/04/16 03:28:47;;;;;;;;;;;8.30;99.90;;;;;;5072349;28;19920;-84
2022/04/16 03:31:13;;;;;;;;;;;8.30;99.90;;;;;;5055133;28;19921;-82
2022/04/16 03:33:38;;;;;;;;;;;8.30;99.90;;;;;;5074685;28;20372;-84
2022/04/16 03:36:04;;;;;;;;;;;8.40;99.90;;;;;;5059701;28;19920;-84
2022/04/16 03:38:31;;;;;;;;;;;8.40;99.90;;;;;;5071784;28;19920;-84
2022/04/16 03:40:57;;;;;;;;;;;8.50;99.90;;;;;;5055547;28;19980;-84
2022/04/16 03:43:26;;;;;;;;;;;8.50;99.90;;;;;;5038601;28;19954;-84
2022/04/16 03:45:51;;;;;;;;;;;8.40;99.90;;;;;;5038627;28;19934;-84
2022/04/16 03:48:17;;;;;;;;;;;8.40;99.90;;;;;;5070196;28;20028;-84
2022/04/16 03:50:42;;;;;;;;;;;8.40;99.90;;;;;;5059239;28;19924;-84
2022/04/16 03:53:08;;;;;;;;;;;8.40;99.90;;;;;;5075416;28;20015;-84
2022/04/16 04:01:03;;;;;;;;;;;8.40;99.90;;;;;;5075293;28;20315;-84
2022/04/16 04:03:30;;;;;;;;;;;8.40;99.90;;;;;;5075446;28;19967;-84
2022/04/16 04:05:56;;;;;;;;;;;8.40;99.90;;;;;;5075580;28;19926;-84
2022/04/16 04:08:22;;;;;;;;;;;8.30;99.90;;;;;;5074171;28;19927;-83
2022/04/16 04:10:48;;;;;;;;;;;8.40;99.90;;;;;;5075170;28;19920;-84
2022/04/16 04:13:14;;;;;;;;;;;8.30;99.90;;;;;;5075492;28;20352;-84
2022/04/16 04:15:40;;;;;;;;;;;8.30;99.90;;;;;;5057672;28;20281;-84
2022/04/16 04:18:06;;;;;;;;;;;8.30;99.90;;;;;;5074823;28;19974;-84
2022/04/16 04:20:32;;;;;;;;;;;8.30;99.90;;;;;;5074904;28;19920;-84
2022/04/16 04:22:57;;;;;;;;;;;8.30;99.90;;;;;;5074887;28;19982;-83
2022/04/16 04:25:23;;;;;;;;;;;8.30;99.90;;;;;;5074776;28;19927;-83
2022/04/16 04:27:49;;;;;;;;;;;8.20;99.90;;;;;;5074306;28;20396;-84
2022/04/16 04:30:15;;;;;;;;;;;8.20;99.90;;;;;;5058040;28;19921;-83
2022/04/16 04:32:40;;;;;;;;;;;8.20;99.90;;;;;;5057748;28;20386;-84
2022/04/16 04:35:07;;;;;;;;;;;8.10;99.90;;;;;;5058080;28;19924;-84
2022/04/16 04:37:32;;;;;;;;;;;8.10;99.90;;;;;;5074319;28;19971;-84
2022/04/16 04:39:58;;;;;;;;;;;8.10;99.90;;;;;;5058102;28;20038;-83
2022/04/16 04:42:24;;;;;;;;;;;8.00;99.90;;;;;;5074179;28;19921;-83
2022/04/16 04:44:49;;;;;;;;;;;8.00;99.90;;;;;;5057502;28;20341;-84
2022/04/16 04:47:15;;;;;;;;;;;8.00;99.90;;;;;;5057671;28;20411;-84
2022/04/16 04:49:40;;;;;;;;;;;8.00;99.90;;;;;;5057800;28;19981;-84
2022/04/16 04:52:06;;;;;;;;;;;8.00;99.90;;;;;;5058031;28;19924;-85
2022/04/16 04:54:32;;;;;;;;;;;8.00;99.90;;;;;;5060285;28;19920;-84
2022/04/16 04:56:57;;;;;;;;;;;8.00;99.90;;;;;;5078479;28;19920;-84
2022/04/16 04:59:23;;;;;;;;;;;8.00;99.90;;;;;;5076978;28;19920;-85
2022/04/16 05:01:49;;;;;;;;;;;8.00;99.90;;;;;;5058090;28;19921;-84
2022/04/16 05:04:14;;;;;;;;;;;8.10;99.90;;;;;;5060173;28;19960;-84
2022/04/16 05:06:40;;;;;;;;;;;8.10;99.90;;;;;;5060729;28;19927;-84
2022/04/16 05:09:05;;;;;;;;;;;8.20;99.90;;;;;;5060044;28;20324;-84
2022/04/16 05:11:31;;;;;;;;;;;8.10;99.90;;;;;;5074799;28;19990;-84
2022/04/16 05:13:56;;;;;;;;;;;8.30;99.90;;;;;;5073919;28;20376;-84
2022/04/16 05:16:22;;;;;;;;;;;8.20;99.90;;;;;;5040132;28;19924;-84
2022/04/16 05:18:48;;;;;;;;;;;8.30;99.90;;;;;;5074280;28;20324;-83
2022/04/16 05:21:13;;;;;;;;;;;8.30;99.90;;;;;;5073498;28;19920;-84
2022/04/16 05:23:42;;;;;;;;;;;8.30;99.90;;;;;;5073701;28;19927;-83
2022/04/16 05:26:08;;;;;;;;;;;8.30;99.90;;;;;;5074232;28;20018;-84
2022/04/16 05:28:34;;;;;;;;;;;8.40;99.90;;;;;;5073532;28;19920;-84
2022/04/16 05:31:01;;;;;;;;;;;8.40;99.90;;;;;;5057503;28;20362;-84
2022/04/16 05:36:11;;;;;;;;;;;8.40;99.90;;;;;;5073330;28;19989;-84
2022/04/16 05:38:36;;;;;;;;;;;8.40;99.90;;;;;;5057059;28;19920;-84
2022/04/16 05:41:02;;;;;;;;;;;8.40;99.90;;;;;;5056942;28;20365;-84
2022/04/16 05:43:27;;;;;;;;;;;8.40;99.90;;;;;;5056704;28;20050;-84
2022/04/16 05:45:54;;;;;;;;;;;8.40;99.90;;;;;;5056586;28;19977;-83
2022/04/16 05:48:19;;;;;;;;;;;8.40;99.90;;;;;;5073137;28;19928;-84
2022/04/16 05:50:45;;;;;;;;;;;8.40;99.90;;;;;;5056187;28;19920;-84
2022/04/16 05:53:12;;;;;;;;;;;8.30;99.90;;;;;;5072436;28;20426;-84
2022/04/16 05:55:39;;;;;;;;;;;8.40;99.90;;;;;;5056284;28;20011;-84
2022/04/16 05:58:04;;;;;;;;;;;8.40;99.90;;;;;;5073189;28;20423;-84
2022/04/16 06:00:30;;;;;;;;;;;8.40;99.90;;;;;;5056759;28;19920;-84
2022/04/16 06:02:56;;;;;;;;;;;8.40;99.90;;;;;;5055834;28;19967;-83
2022/04/16 06:05:22;;;;;;;;;;;8.50;99.90;;;;;;5068596;28;20407;-85
2022/04/16 06:07:48;;;;;;;;;;;8.50;99.90;;;;;;5036025;28;19974;-84
2022/04/16 06:10:13;;;;;;;;;;;8.50;99.90;;;;;;5036688;28;19921;-85
2022/04/16 06:12:41;;;;;;;;;;;8.40;99.90;;;;;;5043833;28;19995;-79
2022/04/16 06:15:06;;;;;;;;;;;8.50;99.90;;;;;;5047590;28;19925;-83
2022/04/16 06:17:32;;;;;;;;;;;8.60;99.90;;;;;;5047328;28;20399;-84
2022/04/16 06:19:58;;;;;;;;;;;8.60;99.90;;;;;;5047575;28;19947;-84
2022/04/16 06:22:23;;;;;;;;;;;8.60;99.90;;;;;;5051479;28;19920;-89
2022/04/16 06:24:49;;;;;;;;;;;8.60;99.90;;;;;;5038665;28;19921;-84
2022/04/16 06:27:15;;;;;;;;;;;8.50;99.90;;;;;;5071015;28;20062;-86
2022/04/16 06:29:41;;;;;;;;;;;8.70;99.90;;;;;;5059155;28;19948;-85
2022/04/16 06:32:06;;;;;;;;;;;8.70;99.90;;;;;;5044512;28;19924;-85
2022/04/16 06:34:32;;;;;;;;;;;8.70;99.90;;;;;;5043484;28;19921;-88
2022/04/16 06:36:59;;;;;;;;;;;8.80;99.90;;;;;;5068137;28;19931;-88
2022/04/16 06:39:25;;;;;;;;;;;8.70;99.90;;;;;;5045815;28;19920;-86
2022/04/16 06:41:50;;;;;;;;;;;8.90;99.90;;;;;;5061015;28;19924;-87
2022/04/16 06:44:16;;;;;;;;;;;8.90;99.90;;;;;;5039943;28;19931;-89
2022/04/16 06:46:41;;;;;;;;;;;9.00;99.90;;;;;;5049124;28;19926;-91
2022/04/16 06:49:07;;;;;;;;;;;9.00;99.90;;;;;;5043892;28;19981;-88
2022/04/16 06:51:33;;;;;;;;;;;9.00;99.90;;;;;;5040705;28;19970;-87
2022/04/16 06:53:58;;;;;;;;;;;9.00;99.90;;;;;;5039559;28;19921;-88
2022/04/16 06:56:24;;;;;;;;;;;9.10;99.90;;;;;;5070860;28;19920;-88
2022/04/16 06:58:49;;;;;;;;;;;9.20;99.90;;;;;;5071688;28;19926;-88
2022/04/16 07:01:15;;;;;;;;;;;9.20;99.90;;;;;;5063591;28;19970;-91
2022/04/16 07:03:40;;;;;;;;;;;9.20;99.90;;;;;;5036151;28;19920;-91
2022/04/16 07:06:06;;;;;;;;;;;9.20;99.90;;;;;;5042200;28;19925;-91
2022/04/16 07:08:32;;;;;;;;;;;9.30;99.90;;;;;;5055690;28;19920;-91
2022/04/16 07:10:57;;;;;;;;;;;9.20;99.90;;;;;;5069447;28;19932;-91
2022/04/16 07:13:23;;;;;;;;;;;9.30;99.90;;;;;;5042629;28;20086;-90
2022/04/16 07:15:48;;;;;;;;;;;9.40;99.90;;;;;;5070556;28;19920;-91
2022/04/16 07:18:14;;;;;;;;;;;9.50;99.90;;;;;;5056535;28;19917;-92
2022/04/16 07:20:40;;;;;;;;;;;9.60;99.90;;;;;;5068269;28;20289;-92
2022/04/16 07:23:06;;;;;;;;;;;9.70;99.90;;;;;;5069663;28;20018;-91
2022/04/16 07:25:33;;;;;;;;;;;9.80;99.90;;;;;;5074800;28;20389;-91
2022/04/16 07:27:58;;;;;;;;;;;10.00;99.90;;;;;;5075158;28;19920;-91
2022/04/16 07:30:24;;;;;;;;;;;10.20;99.90;;;;;;5058488;28;19921;-91
2022/04/16 07:32:51;;;;;;;;;;;10.30;99.90;;;;;;5036631;28;20435;-91
2022/04/16 07:35:16;;;;;;;;;;;10.30;99.90;;;;;;5058484;28;19920;-91
2022/04/16 07:37:42;;;;;;;;;;;10.20;99.90;;;;;;5076552;28;20031;-92
2022/04/16 07:40:08;;;;;;;;;;;10.20;99.90;;;;;;5065252;28;19924;-90
2022/04/16 07:42:33;;;;;;;;;;;10.20;99.90;;;;;;5040212;28;19921;-91
2022/04/16 07:45:00;;;;;;;;;;;10.20;99.90;;;;;;5039359;28;20380;-91
2022/04/16 07:47:25;;;;;;;;;;;10.20;99.90;;;;;;5056151;28;19970;-89
2022/04/16 07:49:51;;;;;;;;;;;10.30;99.90;;;;;;5039912;28;20350;-91
2022/04/16 07:52:16;;;;;;;;;;;10.30;99.90;;;;;;5042310;28;19935;-92
2022/04/16 07:54:42;;;;;;;;;;;10.40;99.90;;;;;;5075910;28;19920;-91
2022/04/16 07:57:08;;;;;;;;;;;10.40;99.90;;;;;;5058694;28;19968;-91
2022/04/16 07:59:33;;;;;;;;;;;10.30;99.90;;;;;;5075869;28;19954;-90
2022/04/16 08:01:59;;;;;;;;;;;10.30;99.90;;;;;;5073926;28;19920;-91
2022/04/16 08:04:25;;;;;;;;;;;10.30;99.90;;;;;;5042271;28;19921;-91
2022/04/16 08:06:50;;;;;;;;;;;10.40;99.90;;;;;;5055783;28;19991;-91
2022/04/16 08:09:16;;;;;;;;;;;10.40;99.90;;;;;;5055739;28;19973;-91
2022/04/16 08:11:42;;;;;;;;;;;10.50;99.90;;;;;;5046786;28;19928;-89
2022/04/16 08:14:08;;;;;;;;;;;10.50;99.90;;;;;;5062386;28;19943;-79
2022/04/16 08:16:33;;;;;;;;;;;10.60;99.90;;;;;;5038504;28;19970;-82
2022/04/16 08:18:59;;;;;;;;;;;10.80;99.90;;;;;;5039018;28;19928;-91
2022/04/16 08:21:28;;;;;;;;;;;10.70;99.90;;;;;;5057860;28;20369;-84
2022/04/16 08:24:04;;;;;;;;;;;10.90;99.90;;;;;;5049799;28;19998;-90
2022/04/16 08:26:30;;;;;;;;;;;10.90;99.90;;;;;;5049662;28;19966;-88
2022/04/16 08:28:56;;;;;;;;;;;10.90;99.90;;;;;;5064810;28;19928;-87
2022/04/16 08:31:21;;;;;;;;;;;10.90;99.90;;;;;;5046869;28;19921;-90
2022/04/16 08:33:47;;;;;;;;;;;11.00;99.90;;;;;;5054151;28;19924;-89
2022/04/16 08:36:13;;;;;;;;;;;11.00;99.90;;;;;;5040054;28;19924;-86
2022/04/16 08:38:38;;;;;;;;;;;11.10;99.90;;;;;;5073920;28;20292;-84
2022/04/16 08:41:05;;;;;;;;;;;11.20;99.90;;;;;;5072529;28;19920;-88
2022/04/16 08:43:32;;;;;;;;;;;11.40;99.90;;;;;;5060713;28;19928;-85
2022/04/16 08:45:58;;;;;;;;;;;11.40;99.90;;;;;;5068935;28;20005;-88
2022/04/16 08:48:24;;;;;;;;;;;11.50;99.90;;;;;;5056321;28;19924;-86
2022/04/16 08:50:49;;;;;;;;;;;11.60;99.90;;;;;;5071125;28;19921;-86
2022/04/16 08:53:15;;;;;;;;;;;11.70;99.90;;;;;;5071848;28;19924;-87
2022/04/16 08:55:41;;;;;;;;;;;11.70;99.90;;;;;;5056607;28;19920;-86
2022/04/16 08:58:06;;;;;;;;;;;11.90;99.90;;;;;;5073744;28;19924;-87
2022/04/16 09:00:32;;;;;;;;;;;11.90;99.90;;;;;;5057085;28;20682;-86
2022/04/16 09:02:59;;;;;;;;;;;12.00;99.90;;;;;;5054404;28;20415;-83
2022/04/16 09:05:26;;;;;;;;;;;12.10;99.90;;;;;;5061604;28;19939;-87
2022/04/16 09:07:52;;;;;;;;;;;12.10;99.90;;;;;;5072805;28;19927;-86
2022/04/16 09:10:19;;;;;;;;;;;12.20;99.90;;;;;;5073159;28;20330;-86
2022/04/16 09:12:45;;;;;;;;;;;12.30;99.90;;;;;;5071772;28;19946;-86
2022/04/16 09:15:12;;;;;;;;;;;12.30;99.90;;;;;;5074005;28;20365;-90
2022/04/16 09:17:38;;;;;;;;;;;12.20;99.90;;;;;;5065729;28;19912;-87
2022/04/16 09:20:13;;;;;;;;;;;12.30;99.90;;;;;;5058686;28;19928;-88
2022/04/16 09:22:40;;;;;;;;;;;12.40;99.90;;;;;;5054075;28;19971;-80
2022/04/16 09:25:16;;;;;;;;;;;12.50;99.90;;;;;;5071350;28;19920;-81
2022/04/16 09:27:52;;;;;;;;;;;12.70;99.90;;;;;;5072107;28;19928;-85
2022/04/16 09:30:24;;;;;;;;;;;12.70;99.90;;;;;;5053045;28;20007;-91
2022/04/16 09:32:52;;;;;;;;;;;12.80;99.90;;;;;;5059995;28;19920;-89
2022/04/16 09:35:24;;;;;;;;;;;12.90;99.90;;;;;;5057403;28;19916;-86
2022/04/16 09:37:53;;;;;;;;;;;13.00;99.90;;;;;;5066042;28;19920;-84
2022/04/16 09:40:18;;;;;;;;;;;13.00;99.90;;;;;;5072462;28;19923;-89
2022/04/16 09:42:51;;;;;;;;;;;13.10;99.90;;;;;;5056758;28;19920;-86
2022/04/16 09:45:16;;;;;;;;;;;13.20;99.90;;;;;;5071147;28;19928;-86
2022/04/16 09:47:42;;;;;;;;;;;13.30;99.90;;;;;;5071984;28;20026;-88
2022/04/16 09:50:08;;;;;;;;;;;13.40;99.90;;;;;;5056332;28;19924;-89
2022/04/16 09:52:34;;;;;;;;;;;13.40;99.90;;;;;;5054935;28;19917;-85
2022/04/16 09:55:01;;;;;;;;;;;13.50;99.90;;;;;;5082389;28;19978;-91
2022/04/16 09:57:29;;;;;;;;;;;13.60;99.90;;;;;;5059381;28;19925;-86
2022/04/16 09:59:57;;;;;;;;;;;13.70;99.90;;;;;;5054143;28;20364;-83
2022/04/16 10:02:23;;;;;;;;;;;13.70;99.90;;;;;;5070950;28;20001;-88
2022/04/16 10:04:49;;;;;;;;;;;13.70;99.90;;;;;;5068696;28;19938;-83
2022/04/16 10:07:15;;;;;;;;;;;13.80;99.90;;;;;;5054425;28;19920;-85
2022/04/16 10:09:41;;;;;;;;;;;13.80;99.90;;;;;;5064585;28;19928;-83
2022/04/16 10:14:56;;;;;;;;;;;13.90;99.90;;;;;;5070705;28;19924;-91
2022/04/16 10:17:30;;;;;;;;;;;14.00;99.90;;;;;;5070858;28;19920;-86
2022/04/16 10:20:07;;;;;;;;;;;14.10;99.90;;;;;;5055015;28;19924;-86
2022/04/16 10:22:33;;;;;;;;;;;14.10;99.90;;;;;;5071882;28;20007;-85
2022/04/16 10:24:59;;;;;;;;;;;14.30;99.90;;;;;;5065705;28;20420;-84
2022/04/16 10:27:28;;;;;;;;;;;14.40;99.90;;;;;;5060274;28;19923;-85
2022/04/16 10:29:59;;;;;;;;;;;14.50;99.90;;;;;;5051324;28;19920;-87
2022/04/16 10:32:27;;;;;;;;;;;14.60;99.90;;;;;;5066352;28;19929;-89
2022/04/16 10:35:01;;;;;;;;;;;14.70;99.90;;;;;;5052565;28;19928;-89
2022/04/16 10:37:27;;;;;;;;;;;14.70;99.90;;;;;;5055730;28;20438;-87
2022/04/16 10:39:53;;;;;;;;;;;14.90;99.90;;;;;;5057056;28;19924;-87
2022/04/16 10:42:30;;;;;;;;;;;15.00;99.90;;;;;;5066982;28;19984;-87
2022/04/16 10:45:05;;;;;;;;;;;15.00;99.90;;;;;;5073086;28;19921;-85
2022/04/16 10:47:34;;;;;;;;;;;15.00;99.90;;;;;;5072487;28;19969;-87
2022/04/16 10:50:06;;;;;;;;;;;15.20;99.90;;;;;;5073108;28;19920;-86
2022/04/16 10:52:31;;;;;;;;;;;15.30;99.90;;;;;;5057497;28;19973;-87
2022/04/16 10:55:06;;;;;;;;;;;15.40;99.90;;;;;;5071272;28;19928;-88
2022/04/16 10:57:32;;;;;;;;;;;15.50;98.50;;;;;;5071124;28;19966;-87
2022/04/16 11:00:09;;;;;;;;;;;15.60;98.50;;;;;;5089392;28;19959;-88
2022/04/16 11:02:35;;;;;;;;;;;15.80;98.50;;;;;;5088162;28;19974;-86
2022/04/16 11:05:08;;;;;;;;;;;16.00;97.20;;;;;;5037348;28;20343;-86
2022/04/16 11:07:35;;;;;;;;;;;16.00;96.70;;;;;;5065055;28;20610;-82
2022/04/16 11:10:01;;;;;;;;;;;16.30;97.20;;;;;;5053241;28;19958;-89
2022/04/16 11:12:27;;;;;;;;;;;16.60;96.00;;;;;;5053277;28;19928;-87
2022/04/16 11:14:53;;;;;;;;;;;16.70;95.30;;;;;;5069783;28;20431;-82
2022/04/16 11:17:21;;;;;;;;;;;16.80;93.00;;;;;;5051239;28;19928;-82
2022/04/16 11:20:07;;;;;;;;;;;16.70;92.00;;;;;;5071223;28;20391;-83
2022/04/16 11:22:33;;;;;;;;;;;16.80;91.20;;;;;;5053238;28;19924;-83
2022/04/16 11:24:59;;;;;;;;;;;16.90;90.80;;;;;;5041492;28;20004;-80
2022/04/16 11:35:53;;;;;;;;;;;17.60;86.60;;;;;;5051004;28;19920;-86
2022/04/16 11:38:24;;;;;;;;;;;17.60;82.60;;;;;;5062074;28;19921;-82
2022/04/16 11:40:51;;;;;;;;;;;18.00;88.00;;;;;;5070733;28;19999;-81
2022/04/16 11:43:17;;;;;;;;;;;18.20;82.90;;;;;;5037589;28;19951;-81
2022/04/16 11:45:46;;;;;;;;;;;18.20;80.50;;;;;;5040310;28;20369;-80
2022/04/16 11:48:12;;;;;;;;;;;18.40;82.00;;;;;;5070737;28;19916;-82
2022/04/16 11:50:38;;;;;;;;;;;18.60;80.40;;;;;;5065872;28;19928;-83
2022/04/16 11:53:04;;;;;;;;;;;18.80;79.40;;;;;;5051537;28;19920;-82
2022/04/16 11:55:30;;;;;;;;;;;19.00;79.30;;;;;;5050031;28;20015;-82
2022/04/16 11:57:56;;;;;;;;;;;19.20;77.00;;;;;;5050530;28;19925;-82
2022/04/16 12:00:22;;;;;;;;;;;19.60;81.30;;;;;;5064720;28;19927;-84
2022/04/16 12:02:54;;;;;;;;;;;19.70;77.00;;;;;;5058871;28;19944;-82
2022/04/16 12:05:26;;;;;;;;;;;19.80;76.60;;;;;;5071005;28;19920;-82
2022/04/16 12:07:52;;;;;;;;;;;19.70;72.50;;;;;;5068481;28;19942;-84
2022/04/16 12:10:18;;;;;;;;;;;19.90;73.70;;;;;;5029955;28;20369;-86
2022/04/16 12:12:48;;;;;;;;;;;20.10;70.70;;;;;;5070697;28;19920;-87
2022/04/16 12:15:22;;;;;;;;;;;19.60;68.20;;;;;;5055500;28;19973;-89
2022/04/16 12:17:48;;;;;;;;;;;19.10;66.30;;;;;;5071301;28;20020;-82
2022/04/16 12:20:13;;;;;;;;;;;19.10;67.90;;;;;;5053585;28;20012;-82
2022/04/16 12:22:56;;;;;;;;;;;19.00;68.80;;;;;;5070770;28;19966;-82
2022/04/16 12:25:22;;;;;;;;;;;19.30;68.50;;;;;;5061066;28;20288;-82
2022/04/16 12:27:47;;;;;;;;;;;19.60;69.90;;;;;;5073972;28;19924;-82
2022/04/16 12:30:14;;;;;;;;;;;19.60;62.00;;;;;;5056889;28;19993;-83
2022/04/16 12:32:39;;;;;;;;;;;19.80;64.30;;;;;;5063225;28;19978;-82
2022/04/16 12:35:05;;;;;;;;;;;20.00;62.80;;;;;;5060065;28;19921;-82
2022/04/16 12:37:31;;;;;;;;;;;20.30;62.60;;;;;;5073772;28;20351;-82
2022/04/16 12:39:56;;;;;;;;;;;20.60;62.70;;;;;;5072150;28;19930;-83
2022/04/16 12:42:22;;;;;;;;;;;20.70;62.10;;;;;;5055591;28;19967;-83
2022/04/16 12:44:47;;;;;;;;;;;20.80;58.40;;;;;;5057341;28;19993;-83
2022/04/16 12:47:16;;;;;;;;;;;20.50;56.40;;;;;;5056831;28;19974;-83
2022/04/16 12:49:41;;;;;;;;;;;21.00;60.60;;;;;;5069022;28;19920;-83
2022/04/16 12:52:07;;;;;;;;;;;21.30;58.20;;;;;;5055189;28;19921;-85
2022/04/16 12:54:35;;;;;;;;;;;21.30;53.50;;;;;;5068393;28;19928;-84
2022/04/16 12:57:01;;;;;;;;;;;21.30;51.90;;;;;;5056695;28;19974;-84
2022/04/16 12:59:26;;;;;;;;;;;21.50;52.90;;;;;;5056804;28;19971;-84
2022/04/16 13:01:52;;;;;;;;;;;21.70;53.70;;;;;;5056013;28;19925;-84
2022/04/16 13:04:17;;;;;;;;;;;21.70;49.80;;;;;;5056713;28;19932;-83
2022/04/16 13:06:43;;;;;;;;;;;21.60;48.30;;;;;;5054960;28;19924;-84
2022/04/16 13:09:09;;;;;;;;;;;21.70;47.50;;;;;;5073062;28;19978;-84
2022/04/16 13:11:35;;;;;;;;;;;21.80;47.70;;;;;;5051589;28;20285;-84
2022/04/16 13:14:00;;;;;;;;;;;21.60;46.50;;;;;;5036692;28;19921;-84
2022/04/16 13:16:26;;;;;;;;;;;22.00;48.80;;;;;;5022511;28;19925;-84
2022/04/16 13:18:51;;;;;;;;;;;22.50;48.90;;;;;;5036649;28;19935;-84
2022/04/16 13:21:17;;;;;;;;;;;22.90;45.20;;;;;;5054783;28;19947;-84
2022/04/16 13:23:43;;;;;;;;;;;22.90;42.50;;;;;;5054352;28;19924;-84
2022/04/16 13:26:08;;;;;;;;;;;23.20;40.20;;;;;;5038477;28;19924;-84
2022/04/16 13:28:34;;;;;;;;;;;23.60;42.70;;;;;;5037210;28;19991;-85
2022/04/16 13:30:59;;;;;;;;;;;24.00;41.60;;;;;;5052982;28;19928;-85
2022/04/16 13:33:25;;;;;;;;;;;24.20;40.40;;;;;;5055026;28;20018;-85
2022/04/16 13:35:50;;;;;;;;;;;24.10;40.90;;;;;;5055069;28;20446;-84
2022/04/16 13:38:16;;;;;;;;;;;24.30;40.00;;;;;;5071885;28;20368;-84
2022/04/16 13:43:26;;;;;;;;;;;24.80;37.90;;;;;;5072495;28;19924;-84
2022/04/16 13:45:52;;;;;;;;;;;24.50;37.20;;;;;;5072306;28;19920;-85
2022/04/16 13:48:17;;;;;;;;;;;24.90;36.90;;;;;;5055477;28;19931;-84
2022/04/16 13:50:43;;;;;;;;;;;25.30;37.30;;;;;;5070442;28;19951;-85
2022/04/16 13:53:08;;;;;;;;;;;25.50;37.40;;;;;;5071902;28;19920;-85
2022/04/16 13:55:34;;;;;;;;;;;26.00;39.20;;;;;;5060927;28;20421;-88
2022/04/16 13:58:00;;;;;;;;;;;25.80;35.20;;;;;;5053146;28;19920;-84
2022/04/16 14:00:26;;;;;;;;;;;25.40;35.00;;;;;;5058554;28;20281;-84
2022/04/16 14:02:51;;;;;;;;;;;24.80;34.10;;;;;;5052563;28;19928;-83
2022/04/16 14:08:02;;;;;;;;;;;25.40;33.80;;;;;;5071183;28;19960;-83
2022/04/16 14:10:27;;;;;;;;;;;25.50;34.30;;;;;;5072038;28;19978;-83
2022/04/16 14:12:53;;;;;;;;;;;25.90;35.50;;;;;;5071382;28;20384;-83
2022/04/16 14:15:19;;;;;;;;;;;25.90;33.80;;;;;;5067127;28;19920;-83
2022/04/16 14:17:44;;;;;;;;;;;25.80;33.20;;;;;;5051904;28;20424;-84
2022/04/16 14:20:10;;;;;;;;;;;26.30;33.90;;;;;;5053852;28;20345;-83
2022/04/16 14:22:36;;;;;;;;;;;25.50;30.50;;;;;;5070716;28;20153;-83
2022/04/16 14:25:02;;;;;;;;;;;25.80;33.20;;;;;;5070362;28;19940;-84
2022/04/16 14:27:27;;;;;;;;;;;25.90;32.90;;;;;;5056752;28;19921;-84
2022/04/16 14:29:53;;;;;;;;;;;25.80;30.50;;;;;;5047454;28;19931;-82
2022/04/16 14:32:19;;;;;;;;;;;25.90;32.70;;;;;;5054448;28;19920;-84
2022/04/16 14:34:45;;;;;;;;;;;26.30;32.30;;;;;;5057946;28;20089;-83
2022/04/16 14:37:10;;;;;;;;;;;26.60;32.90;;;;;;5063607;28;19920;-84
2022/04/16 14:39:36;;;;;;;;;;;26.50;32.30;;;;;;5069668;28;20321;-84
2022/04/16 14:42:02;;;;;;;;;;;26.60;31.60;;;;;;5052489;28;19931;-83
2022/04/16 14:44:28;;;;;;;;;;;26.60;33.80;;;;;;5071239;28;20249;-83
2022/04/16 14:46:55;;;;;;;;;;;26.20;32.10;;;;;;5055213;28;19975;-83
2022/04/16 14:49:21;;;;;;;;;;;25.80;30.40;;;;;;5071488;28;19920;-83